Time;durP1;ratioP1;P1;durP2;ratioP2;P2;SDS_P1;SDS_P2;PMS_P1;PMS_P2;Temp;Humidity;BMP_temperature;BMP_pressure;BME280_temperature;BME280_humidity;BME280_pressure;Samples;Min_cycle;Max_cycle;Signal;HPM_P1;HPM_P2
2023/09/21 00:02:59;;;;;;;7.13;1.58;;;;;;;14.41;85.86;99554.66;5113400;28;20080;-72
2023/09/21 00:06:04;;;;;;;5.75;1.50;;;;;;;14.47;85.45;99550.69;5112600;28;20518;-72
2023/09/21 00:09:08;;;;;;;7.03;1.55;;;;;;;14.39;85.61;99546.91;5113342;28;20046;-72
2023/09/21 00:12:12;;;;;;;5.68;1.58;;;;;;;14.40;85.75;99545.09;5113006;28;20047;-72
2023/09/21 00:15:19;;;;;;;6.78;1.60;;;;;;;14.38;85.79;99549.66;5113213;28;20084;-72
2023/09/21 00:18:23;;;;;;;5.60;1.70;;;;;;;14.39;85.38;99549.53;5113195;28;20088;-72
2023/09/21 00:21:26;;;;;;;6.47;1.42;;;;;;;14.29;86.30;99548.59;5112379;28;20038;-72
2023/09/21 00:24:30;;;;;;;4.05;2.45;;;;;;;14.23;86.00;99535.13;5113183;28;20047;-72
2023/09/21 00:27:33;;;;;;;3.90;1.50;;;;;;;14.23;86.20;99545.66;5114488;28;20046;-72
2023/09/21 00:30:41;;;;;;;5.03;1.33;;;;;;;14.24;86.20;99531.56;5116533;28;20088;-73
2023/09/21 00:33:45;;;;;;;4.82;1.73;;;;;;;14.25;85.76;99539.31;5116462;28;20043;-72
2023/09/21 00:36:49;;;;;;;4.88;1.30;;;;;;;14.25;85.69;99525.34;5116359;28;20039;-73
2023/09/21 00:39:52;;;;;;;6.22;1.55;;;;;;;14.24;85.70;99516.63;5117220;28;20088;-72
2023/09/21 00:42:56;;;;;;;4.38;1.60;;;;;;;14.22;86.11;99528.22;5117194;28;20046;-72
2023/09/21 00:46:05;;;;;;;3.83;1.50;;;;;;;14.21;85.90;99521.31;5117169;28;20101;-72
2023/09/21 00:49:09;;;;;;;4.63;1.27;;;;;;;14.26;85.48;99521.75;5117005;28;20055;-72
2023/09/21 00:52:12;;;;;;;9.85;1.58;;;;;;;14.19;85.54;99506.47;5116819;28;20127;-72
2023/09/21 00:55:22;;;;;;;3.63;1.27;;;;;;;14.12;85.90;99510.59;5117003;28;20505;-70
2023/09/21 00:58:28;;;;;;;4.55;1.27;;;;;;;14.12;85.97;99507.97;5115964;28;20553;-71
2023/09/21 01:01:33;;;;;;;5.40;1.50;;;;;;;14.12;85.52;99500.06;5115996;28;20039;-71
2023/09/21 01:04:38;;;;;;;6.20;1.83;;;;;;;14.07;85.40;99504.91;5115854;28;20415;-71
2023/09/21 01:07:42;;;;;;;6.15;1.63;;;;;;;14.01;85.89;99508.03;5115883;28;20038;-72
2023/09/21 01:10:49;;;;;;;4.82;1.42;;;;;;;13.97;86.33;99496.06;5116424;28;20618;-72
2023/09/21 01:13:53;;;;;;;3.65;1.65;;;;;;;13.98;86.10;99500.41;5116518;28;20407;-72
2023/09/21 01:16:57;;;;;;;4.45;1.55;;;;;;;13.97;85.73;99501.34;5116737;28;20050;-72
2023/09/21 01:20:13;;;;;;;6.13;1.98;;;;;;;13.79;86.54;99493.19;5115496;28;20042;-72
2023/09/21 01:23:22;;;;;;;5.95;1.70;;;;;;;13.84;86.33;99496.25;5116449;28;20112;-72
2023/09/21 01:26:26;;;;;;;6.30;1.40;;;;;;;13.82;86.34;99492.13;5116361;28;20133;-72
2023/09/21 01:29:30;;;;;;;4.35;1.63;;;;;;;13.78;86.32;99503.81;5116541;28;20057;-72
2023/09/21 01:32:32;;;;;;;6.28;2.38;;;;;;;13.70;86.51;99504.44;5116174;28;20081;-72
2023/09/21 01:35:36;;;;;;;2.88;1.40;;;;;;;13.76;86.69;99497.88;5116123;28;20051;-72
2023/09/21 01:38:44;;;;;;;7.28;2.17;;;;;;;13.79;86.42;99497.63;5115642;28;20470;-72
2023/09/21 01:41:49;;;;;;;6.07;1.65;;;;;;;13.78;86.08;99496.75;5115959;28;20502;-72
2023/09/21 01:44:52;;;;;;;5.95;1.30;;;;;;;13.68;86.69;99486.16;5115197;28;20091;-70
2023/09/21 01:47:59;;;;;;;4.25;1.77;;;;;;;13.66;86.46;99485.47;5115987;28;20042;-72
2023/09/21 01:51:02;;;;;;;4.65;1.65;;;;;;;13.65;86.26;99481.16;5115718;28;20387;-72
2023/09/21 01:54:07;;;;;;;5.18;1.63;;;;;;;13.70;86.19;99479.00;5115806;28;20062;-72
2023/09/21 01:57:10;;;;;;;5.03;1.75;;;;;;;13.66;86.24;99471.53;5115968;28;20058;-72
2023/09/21 02:00:27;;;;;;;6.25;1.55;;;;;;;13.64;86.41;99469.00;5114887;28;20070;-73
2023/09/21 02:03:32;;;;;;;4.22;2.00;;;;;;;13.57;86.66;99473.09;5114701;28;20096;-72
2023/09/21 02:06:35;;;;;;;6.90;1.50;;;;;;;13.63;85.91;99477.84;5115629;28;20131;-72
2023/09/21 02:09:41;;;;;;;3.42;1.70;;;;;;;13.56;86.60;99468.81;5115556;28;20123;-73
2023/09/21 02:12:59;;;;;;;5.03;1.40;;;;;;;13.57;86.08;99461.75;5114560;28;20069;-71
2023/09/21 02:16:02;;;;;;;4.70;1.63;;;;;;;13.55;86.25;99459.25;5114617;28;20089;-71
2023/09/21 02:19:07;;;;;;;7.85;1.30;;;;;;;13.54;86.07;99462.00;5115222;28;20046;-71
2023/09/21 02:22:11;;;;;;;6.72;1.80;;;;;;;13.39;86.81;99451.78;5115217;28;20038;-71
2023/09/21 02:25:15;;;;;;;6.18;1.90;;;;;;;13.49;86.36;99455.31;5114361;28;20046;-71
2023/09/21 02:28:18;;;;;;;4.05;1.40;;;;;;;13.52;85.99;99448.97;5115188;28;20039;-71
2023/09/21 02:31:22;;;;;;;4.85;1.58;;;;;;;13.46;86.05;99444.22;5114115;28;20046;-71
2023/09/21 02:34:29;;;;;;;3.28;1.35;;;;;;;13.35;86.60;99450.38;5114945;28;20047;-71
2023/09/21 02:37:32;;;;;;;6.93;2.40;;;;;;;13.42;86.18;99442.81;5115042;28;20078;-71
2023/09/21 02:40:36;;;;;;;7.43;1.88;;;;;;;13.47;85.91;99446.75;5114169;28;20063;-71
2023/09/21 02:43:40;;;;;;;4.90;1.42;;;;;;;13.38;86.42;99431.75;5114829;28;20038;-71
2023/09/21 02:46:44;;;;;;;4.80;1.30;;;;;;;13.40;86.36;99428.97;5114979;28;20077;-71
2023/09/21 02:49:47;;;;;;;5.07;1.45;;;;;;;13.34;86.37;99424.25;5113880;28;20097;-71
2023/09/21 02:52:55;;;;;;;4.60;1.67;;;;;;;13.34;86.36;99419.00;5114073;28;20082;-71
2023/09/21 02:56:02;;;;;;;3.55;1.50;;;;;;;13.34;86.00;99414.56;5113726;28;20153;-71
2023/09/21 02:59:07;;;;;;;6.78;2.03;;;;;;;13.28;86.37;99419.50;5113757;28;20042;-71
2023/09/21 03:02:10;;;;;;;9.75;2.42;;;;;;;13.26;86.57;99417.81;5113880;28;20112;-71
2023/09/21 03:05:14;;;;;;;7.38;1.70;;;;;;;13.33;86.24;99412.06;5114656;28;20046;-71
2023/09/21 03:08:18;;;;;;;6.25;1.80;;;;;;;13.25;86.45;99410.91;5114574;28;20050;-71
2023/09/21 03:11:24;;;;;;;2.83;1.13;;;;;;;13.20;86.39;99396.44;5113210;28;20055;-70
2023/09/21 03:14:29;;;;;;;3.65;1.33;;;;;;;13.15;86.75;99399.44;5114262;28;20528;-71
2023/09/21 03:17:33;;;;;;;6.53;2.47;;;;;;;13.13;86.83;99401.34;5114351;28;20133;-71
2023/09/21 03:20:37;;;;;;;3.92;1.38;;;;;;;13.09;86.94;99389.44;5101811;28;20132;-71
2023/09/21 03:23:40;;;;;;;4.88;1.67;;;;;;;13.16;86.45;99381.91;5113319;28;20152;-71
2023/09/21 03:26:45;;;;;;;4.53;1.42;;;;;;;13.18;85.78;99383.47;5113213;28;20471;-71
2023/09/21 03:29:50;;;;;;;4.72;1.77;;;;;;;13.14;86.08;99368.06;5113170;28;20457;-71
2023/09/21 03:32:53;;;;;;;5.72;1.30;;;;;;;13.04;86.66;99362.72;5112958;28;20051;-71
2023/09/21 03:35:56;;;;;;;4.57;1.50;;;;;;;12.96;87.07;99373.03;5113805;28;20127;-71
2023/09/21 03:39:00;;;;;;;6.65;1.75;;;;;;;13.02;86.93;99359.41;5113051;28;20047;-71
2023/09/21 03:42:04;;;;;;;7.13;1.90;;;;;;;12.99;87.18;99359.66;5112895;28;20045;-71
2023/09/21 03:45:08;;;;;;;5.15;2.22;;;;;;;13.04;86.32;99352.22;5113619;28;20046;-70
2023/09/21 03:48:12;;;;;;;2.60;1.33;;;;;;;12.96;87.15;99349.41;5112731;28;20042;-72
2023/09/21 03:51:16;;;;;;;6.85;1.45;;;;;;;12.91;87.79;99359.44;5112687;28;20046;-73
2023/09/21 03:54:20;;;;;;;7.10;2.33;;;;;;;12.96;87.28;99352.88;5112750;28;20051;-72
2023/09/21 03:57:23;;;;;;;3.53;1.52;;;;;;;12.89;87.50;99340.34;5112567;28;20161;-72
2023/09/21 04:03:30;;;;;;;3.60;1.50;;;;;;;12.91;87.70;99327.94;5112420;28;20467;-71
2023/09/21 04:06:37;;;;;;;3.22;1.27;;;;;;;12.93;87.93;99328.66;5112567;28;20043;-70
2023/09/21 04:09:40;;;;;;;5.60;1.55;;;;;;;13.00;87.33;99335.09;5112505;28;20100;-70
2023/09/21 04:13:10;;;;;;;6.00;1.63;;;;;;;12.95;87.56;99329.34;5072564;28;20067;-71
2023/09/21 04:16:16;;;;;;;8.93;1.88;;;;;;;12.98;87.85;99329.09;5072687;28;20127;-71
2023/09/21 04:19:19;;;;;;;;;;;;;;;12.99;87.29;99326.38;5073360;28;20066;-71
2023/09/21 04:22:22;;;;;;;5.28;1.77;;;;;;;13.04;88.07;99321.56;5071719;28;19918;-67
2023/09/21 04:25:25;;;;;;;6.10;1.88;;;;;;;12.89;89.16;99319.34;5071373;28;20055;-70
2023/09/21 04:28:29;;;;;;;4.30;1.60;;;;;;;12.69;89.62;99320.97;5072630;28;20052;-68
2023/09/21 04:31:32;;;;;;;3.30;1.58;;;;;;;12.87;89.25;99316.03;5072468;28;20393;-74
2023/09/21 04:34:36;;;;;;;3.17;1.90;;;;;;;12.90;88.09;99316.63;5084604;28;20119;-72
2023/09/21 04:37:39;;;;;;;6.45;1.58;;;;;;;12.89;87.95;99319.34;5076268;28;20047;-70
2023/09/21 04:40:44;;;;;;;3.63;1.67;;;;;;;12.89;87.74;99321.97;5073204;28;20043;-70
2023/09/21 04:43:49;;;;;;;4.65;1.67;;;;;;;12.85;87.96;99317.94;5073280;28;20079;-72
2023/09/21 04:46:53;;;;;;;7.20;1.50;;;;;;;12.73;89.46;99310.13;5069984;28;20106;-71
2023/09/21 04:50:09;;;;;;;3.65;1.63;;;;;;;12.71;89.23;99311.22;5070162;28;20052;-71
2023/09/21 04:53:37;;;;;;;3.75;1.48;;;;;;;12.87;88.48;99322.13;5090538;28;20102;-73
2023/09/21 04:56:43;;;;;;;4.13;1.83;;;;;;;12.75;88.78;99310.81;5091228;28;20054;-72
2023/09/21 04:59:46;;;;;;;4.63;1.45;;;;;;;12.87;88.40;99310.81;5092237;28;20499;-72
2023/09/21 05:02:50;;;;;;;5.60;1.63;;;;;;;12.82;89.08;99315.56;5091789;28;20507;-72
2023/09/21 05:05:57;;;;;;;6.20;1.40;;;;;;;12.84;88.89;99308.44;5071370;28;20047;-72
2023/09/21 05:09:01;;;;;;;4.78;1.55;;;;;;;12.85;88.88;99308.28;5083363;28;20090;-72
2023/09/21 05:12:06;;;;;;;5.25;1.48;;;;;;;12.92;88.49;99306.00;5102669;28;20161;-72
2023/09/21 05:15:13;;;;;;;4.88;1.70;;;;;;;12.96;88.51;99300.38;5112252;28;20549;-72
2023/09/21 05:18:17;;;;;;;4.65;1.33;;;;;;;12.96;88.29;99304.81;5114510;28;20042;-72
2023/09/21 05:21:21;;;;;;;2.55;1.45;;;;;;;12.90;88.30;99305.31;5115244;28;20116;-72
2023/09/21 05:24:27;;;;;;;5.97;1.58;;;;;;;12.83;89.06;99309.34;5121165;27;20109;-72
2023/09/21 05:27:32;;;;;;;3.05;1.40;;;;;;;12.82;89.74;99312.94;5122385;27;20861;-72
2023/09/21 05:30:44;;;;;;;3.88;1.38;;;;;;;12.89;89.06;99311.50;5127691;27;20050;-73
2023/09/21 05:33:50;;;;;;;4.95;1.75;;;;;;;12.91;89.11;99312.22;5123260;27;20078;-73
2023/09/21 05:36:57;;;;;;;6.97;1.58;;;;;;;12.92;89.08;99319.13;5126757;27;20521;-73
2023/09/21 05:40:06;;;;;;;2.35;1.27;;;;;;;12.80;89.56;99316.53;5129441;27;20122;-73
2023/09/21 05:43:12;;;;;;;3.53;1.17;;;;;;;12.88;89.72;99307.22;5126533;27;20800;-73
2023/09/21 05:46:16;;;;;;;2.97;1.25;;;;;;;12.91;89.12;99301.72;5128035;27;20117;-71
2023/09/21 05:49:24;;;;;;;7.70;1.67;;;;;;;12.91;89.11;99313.03;5130324;27;20100;-72
2023/09/21 05:53:04;;;;;;;4.05;1.10;;;;;;;12.94;89.01;99306.72;5125371;27;20058;-72
2023/09/21 05:56:08;;;;;;;2.30;1.15;;;;;;;12.88;89.60;99313.28;5127413;27;20529;-72
2023/09/21 05:59:11;;;;;;;2.47;1.10;;;;;;;12.91;89.61;99312.22;5128207;27;20083;-72
2023/09/21 06:02:16;;;;;;;2.45;1.13;;;;;;;12.94;89.52;99307.53;5135027;27;20087;-72
2023/09/21 06:05:20;;;;;;;3.65;1.40;;;;;;;12.93;89.76;99315.56;5134942;27;20041;-72
2023/09/21 06:08:24;;;;;;;4.28;1.17;;;;;;;12.84;90.71;99316.28;5121970;27;20046;-74
2023/09/21 06:11:29;;;;;;;2.80;1.50;;;;;;;12.88;90.89;99322.94;5127290;27;20047;-71
2023/09/21 06:14:34;;;;;;;6.15;1.58;;;;;;;13.06;89.91;99308.34;5125250;27;20460;-73
2023/09/21 06:17:49;;;;;;;5.80;1.55;;;;;;;13.12;90.00;99304.38;5124086;27;20054;-71
2023/09/21 06:21:01;;;;;;;2.67;1.20;;;;;;;13.12;90.70;99307.00;5124148;27;20461;-71
2023/09/21 06:24:09;;;;;;;4.53;1.58;;;;;;;13.10;90.71;99309.75;5122067;27;20058;-72
2023/09/21 06:27:13;;;;;;;3.30;1.20;;;;;;;13.13;91.34;99309.50;5123680;27;20183;-72
2023/09/21 06:30:17;;;;;;;3.80;1.42;;;;;;;13.24;90.85;99299.00;5123783;27;20117;-71
2023/09/21 06:33:24;;;;;;;4.80;1.30;;;;;;;13.30;90.54;99292.38;5123211;27;20466;-71
2023/09/21 06:37:23;;;;;;;2.50;1.27;;;;;;;13.28;90.87;99304.00;5122385;27;20089;-72
2023/09/21 06:40:27;;;;;;;3.00;1.33;;;;;;;13.30;90.79;99312.56;5123586;27;20073;-72
2023/09/21 06:43:30;;;;;;;3.00;1.30;;;;;;;13.40;90.31;99302.94;5123915;27;20035;-72
2023/09/21 06:46:34;;;;;;;2.83;1.30;;;;;;;13.36;90.73;99298.91;5120805;27;20391;-70
2023/09/21 06:49:37;;;;;;;2.15;0.90;;;;;;;13.49;90.43;99294.28;5123051;27;20042;-71
2023/09/21 06:52:40;;;;;;;2.72;1.05;;;;;;;13.57;90.46;99294.50;5118637;27;20399;-72
2023/09/21 06:55:44;;;;;;;2.47;1.23;;;;;;;13.58;90.61;99309.28;5123441;27;20070;-71
2023/09/21 06:58:47;;;;;;;6.07;1.42;;;;;;;13.62;90.71;99307.22;5122651;27;20401;-71
2023/09/21 07:01:51;;;;;;;2.55;1.38;;;;;;;13.72;90.90;99308.16;5120854;27;20080;-70
2023/09/21 07:04:55;;;;;;;4.50;1.38;;;;;;;13.80;91.06;99305.69;5122364;27;20460;-71
2023/09/21 07:08:00;;;;;;;4.63;1.40;;;;;;;13.88;91.42;99307.66;5121766;27;20260;-71
2023/09/21 07:11:03;;;;;;;2.28;1.40;;;;;;;13.92;92.06;99303.81;5122538;27;20175;-70
2023/09/21 07:14:06;;;;;;;5.75;1.20;;;;;;;14.01;91.93;99289.88;5122966;27;20533;-70
2023/09/21 07:17:10;;;;;;;4.30;1.38;;;;;;;14.03;93.08;99277.44;5112765;28;20043;-71
2023/09/21 07:20:13;;;;;;;2.75;1.55;;;;;;;14.13;92.99;99273.03;5112469;28;20045;-72
2023/09/21 07:23:16;;;;;;;6.05;1.48;;;;;;;14.18;93.85;99272.66;5112722;28;20038;-72
2023/09/21 07:26:21;;;;;;;3.78;1.50;;;;;;;14.28;93.28;99270.03;5112367;28;20050;-72
2023/09/21 07:29:26;;;;;;;3.55;1.40;;;;;;;14.18;95.38;99273.47;5112371;28;20564;-71
2023/09/21 07:32:30;;;;;;;5.95;1.65;;;;;;;14.29;96.08;99269.91;5112323;28;20407;-72
2023/09/21 07:35:33;;;;;;;4.32;1.15;;;;;;;14.37;95.74;99262.19;5112186;28;20070;-71
2023/09/21 07:38:37;;;;;;;4.55;1.17;;;;;;;14.51;94.06;99253.09;5124973;27;20049;-71
2023/09/21 07:41:40;;;;;;;6.13;1.63;;;;;;;14.65;93.20;99250.06;5132606;27;20091;-72
2023/09/21 07:44:44;;;;;;;7.65;2.08;;;;;;;14.77;92.35;99247.28;5132627;27;20167;-73
2023/09/21 07:47:47;;;;;;;5.85;1.42;;;;;;;14.92;91.85;99245.09;5131713;27;20120;-72
2023/09/21 07:50:51;;;;;;;3.42;1.30;;;;;;;15.16;92.44;99249.94;5132025;27;20499;-72
2023/09/21 07:53:55;;;;;;;3.53;1.58;;;;;;;15.33;92.06;99255.28;5132356;27;20190;-72
2023/09/21 07:57:03;;;;;;;2.65;1.05;;;;;;;15.37;92.65;99255.00;5132434;27;20054;-73
2023/09/21 08:00:09;;;;;;;5.00;1.55;;;;;;;15.54;92.69;99252.50;5132566;27;20050;-71
2023/09/21 08:03:13;;;;;;;3.15;1.40;;;;;;;15.65;92.15;99248.00;5132106;27;20092;-71
2023/09/21 08:06:19;;;;;;;3.72;1.45;;;;;;;15.58;93.91;99253.03;5132226;27;20042;-71
2023/09/21 08:09:22;;;;;;;3.83;1.45;;;;;;;15.81;93.91;99258.81;5130688;27;20058;-71
2023/09/21 08:12:26;;;;;;;4.28;1.33;;;;;;;15.92;93.63;99261.28;5131731;27;20057;-71
2023/09/21 08:15:29;;;;;;;4.38;1.25;;;;;;;16.18;92.76;99265.88;5132024;27;20065;-71
2023/09/21 08:18:33;;;;;;;11.27;1.58;;;;;;;16.32;92.14;99267.19;5131852;27;20482;-71
2023/09/21 08:21:36;;;;;;;4.43;1.58;;;;;;;16.53;92.92;99251.91;5131865;28;20447;-70
2023/09/21 08:24:41;;;;;;;4.15;1.55;;;;;;;16.62;93.34;99243.06;5131902;28;20066;-72
2023/09/21 08:27:45;;;;;;;5.07;1.25;;;;;;;16.63;93.27;99250.03;5132581;28;20110;-68
2023/09/21 08:30:49;;;;;;;5.15;1.58;;;;;;;16.68;93.11;99236.38;5130943;28;20502;-69
2023/09/21 08:33:52;;;;;;;4.47;1.52;;;;;;;16.85;93.19;99222.38;5131631;28;20096;-69
2023/09/21 08:36:55;;;;;;;6.10;1.80;;;;;;;17.00;92.78;99219.19;5131557;28;20045;-66
2023/09/21 08:39:59;;;;;;;3.15;1.33;;;;;;;17.13;94.24;99217.81;5131571;28;20043;-72
2023/09/21 08:43:04;;;;;;;4.72;1.50;;;;;;;17.21;94.73;99219.69;5131514;28;20038;-68
2023/09/21 08:46:11;;;;;;;5.60;1.33;;;;;;;17.41;94.58;99212.38;5131883;28;20046;-68
2023/09/21 08:49:15;;;;;;;9.38;2.17;;;;;;;17.51;94.94;99218.38;5133958;27;20042;-69
2023/09/21 08:52:20;;;;;;;5.78;1.58;;;;;;;17.63;93.06;99211.03;5135701;27;20081;-67
2023/09/21 08:55:25;;;;;;;5.82;1.40;;;;;;;17.79;93.06;99220.88;5115160;28;20039;-67
2023/09/21 08:58:33;;;;;;;3.45;1.52;;;;;;;17.94;92.46;99218.47;5125569;27;20506;-66
2023/09/21 09:01:37;;;;;;;5.28;1.70;;;;;;;18.02;93.26;99211.38;5114929;28;20104;-67
2023/09/21 09:04:41;;;;;;;5.47;1.70;;;;;;;18.11;93.47;99212.25;5113994;28;20096;-66
2023/09/21 09:07:45;;;;;;;5.53;1.80;;;;;;;18.19;92.76;99206.13;5114732;28;20122;-67
2023/09/21 09:10:50;;;;;;;3.53;1.27;;;;;;;18.44;90.83;99199.09;5114191;28;20054;-69
2023/09/21 09:13:53;;;;;;;5.28;1.30;;;;;;;18.40;90.96;99195.13;5131811;27;20333;-69
2023/09/21 09:16:56;;;;;;;3.47;1.50;;;;;;;18.44;93.13;99189.34;5133625;27;20058;-68
2023/09/21 09:20:05;;;;;;;3.47;1.38;;;;;;;18.37;95.37;99185.69;5121922;27;20046;-72
2023/09/21 09:23:10;;;;;;;6.13;1.75;;;;;;;18.42;95.16;99187.84;5122734;27;20078;-73
2023/09/21 09:26:22;;;;;;;5.00;1.60;;;;;;;18.62;95.26;99185.72;5123779;27;20115;-73
2023/09/21 09:29:27;;;;;;;4.40;1.40;;;;;;;18.78;95.04;99181.28;5104534;27;20039;-70
2023/09/21 09:32:37;;;;;;;5.10;1.95;;;;;;;18.83;94.25;99174.69;5121109;27;20127;-71
2023/09/21 09:35:45;;;;;;;4.32;1.70;;;;;;;18.77;94.49;99174.34;5115650;27;20196;-72
2023/09/21 09:38:48;;;;;;;4.32;1.95;;;;;;;18.80;93.64;99160.75;5116782;27;20405;-71
2023/09/21 09:41:53;;;;;;;4.30;1.77;;;;;;;18.80;92.58;99166.06;5124531;27;20078;-71
2023/09/21 09:44:59;;;;;;;6.65;2.00;;;;;;;18.97;92.71;99152.81;5126977;27;20092;-71
2023/09/21 09:48:11;;;;;;;4.68;1.90;;;;;;;19.05;93.04;99156.28;5133462;27;20058;-71
2023/09/21 09:51:23;;;;;;;7.50;2.25;;;;;;;19.04;93.58;99138.72;5134214;27;20520;-73
2023/09/21 09:54:29;;;;;;;7.30;1.75;;;;;;;19.01;93.88;99143.50;5134728;27;20118;-72
2023/09/21 09:57:33;;;;;;;5.13;1.35;;;;;;;18.87;93.70;99141.56;5134618;27;20095;-72
2023/09/21 10:00:37;;;;;;;5.03;1.60;;;;;;;18.77;93.90;99142.56;5134143;27;20041;-73
2023/09/21 10:03:43;;;;;;;3.60;1.30;;;;;;;18.63;91.78;99137.88;5134560;27;20038;-72
2023/09/21 10:06:47;;;;;;;3.47;1.50;;;;;;;18.72;91.30;99136.06;5134432;27;20046;-73
2023/09/21 10:09:52;;;;;;;4.22;1.85;;;;;;;18.62;93.57;99138.06;5134529;27;20069;-73
2023/09/21 10:12:57;;;;;;;7.45;2.88;;;;;;;18.59;96.64;99144.50;5134202;27;20535;-73
2023/09/21 10:16:05;;;;;;;6.18;2.15;;;;;;;18.51;97.39;99141.88;5134483;27;20045;-73
2023/09/21 10:19:22;;;;;;;4.82;1.80;;;;;;;18.52;96.50;99136.41;5134256;27;20054;-73
2023/09/21 10:22:26;;;;;;;5.22;1.65;;;;;;;18.56;95.72;99131.59;5134030;27;20042;-73
2023/09/21 10:25:42;;;;;;;8.63;2.15;;;;;;;18.61;98.67;99121.34;5134082;27;20038;-73
2023/09/21 10:28:48;;;;;;;7.22;2.63;;;;;;;18.53;98.69;99118.69;5133991;27;20088;-73
2023/09/21 10:32:00;;;;;;;5.60;1.85;;;;;;;18.61;93.19;99116.06;5134332;27;20046;-73
2023/09/21 10:35:08;;;;;;;4.05;1.45;;;;;;;18.66;96.39;99120.84;5134012;27;20166;-73
2023/09/21 10:38:17;;;;;;;3.83;1.52;;;;;;;18.71;96.86;99122.00;5133969;27;20062;-73
2023/09/21 10:41:30;;;;;;;6.60;1.50;;;;;;;18.75;98.24;99123.34;5134117;27;20111;-73
2023/09/21 10:45:04;;;;;;;3.60;1.75;;;;;;;18.76;97.77;99118.88;5133716;27;20053;-73
2023/09/21 10:48:11;;;;;;;5.82;1.92;;;;;;;18.69;98.25;99112.56;5134198;27;20081;-72
2023/09/21 10:51:14;;;;;;;6.18;1.60;;;;;;;18.70;99.16;99120.38;5133643;27;20153;-74
2023/09/21 10:54:21;;;;;;;8.95;2.90;;;;;;;18.70;100.00;99109.78;5121178;27;20050;-78
2023/09/21 10:57:35;;;;;;;7.10;1.80;;;;;;;18.77;100.00;99108.13;5133942;27;20571;-84
2023/09/21 11:00:43;;;;;;;4.90;2.00;;;;;;;19.02;97.24;99098.34;5133622;27;20115;-72
2023/09/21 11:03:48;;;;;;;6.07;1.52;;;;;;;19.09;96.86;99082.59;5133736;27;20082;-75
2023/09/21 11:06:52;;;;;;;3.38;1.65;;;;;;;19.20;94.93;99081.38;5133745;27;20054;-74
2023/09/21 11:10:06;;;;;;;7.68;2.17;;;;;;;19.27;94.48;99072.59;5133461;27;20042;-74
2023/09/21 11:13:10;;;;;;;7.07;1.67;;;;;;;19.39;92.84;99072.19;5132197;27;20041;-74
2023/09/21 11:16:15;;;;;;;10.43;2.08;;;;;;;19.33;91.45;99064.94;5133493;27;20054;-73
2023/09/21 11:19:35;;;;;;;8.00;2.08;;;;;;;19.45;89.93;99064.38;5129444;27;20443;-72
2023/09/21 11:22:42;;;;;;;7.82;1.65;;;;;;;19.53;89.59;99050.28;5133615;27;20467;-73
2023/09/21 11:25:47;;;;;;;3.70;1.75;;;;;;;19.53;90.14;99047.63;5133629;27;20068;-70
2023/09/21 11:28:59;;;;;;;9.70;1.60;;;;;;;19.60;88.85;99045.94;5134166;27;20046;-72
2023/09/21 11:32:05;;;;;;;13.50;2.53;;;;;;;19.77;88.91;99043.22;5132719;27;20066;-72
2023/09/21 11:35:09;;;;;;;7.72;2.00;;;;;;;19.84;87.73;99044.16;5132642;27;20046;-71
2023/09/21 11:38:15;;;;;;;4.55;1.85;;;;;;;19.94;86.02;99039.44;5132606;27;20123;-75
2023/09/21 11:41:18;;;;;;;6.55;2.08;;;;;;;20.11;84.51;99026.91;5132941;27;20424;-76
2023/09/21 11:44:27;;;;;;;6.57;2.13;;;;;;;20.16;87.41;99019.22;5132486;27;20042;-73
2023/09/21 11:47:33;;;;;;;9.68;2.03;;;;;;;20.20;86.14;99021.34;5132786;27;20398;-71
2023/09/21 11:50:43;;;;;;;6.57;1.83;;;;;;;20.35;85.00;99017.88;5132410;27;20042;-69
2023/09/21 11:53:46;;;;;;;6.60;1.50;;;;;;;20.51;82.78;99011.59;5132381;27;20509;-70
2023/09/21 11:56:49;;;;;;;6.63;1.88;;;;;;;20.65;81.23;99001.03;5132530;27;20492;-72
2023/09/21 11:59:56;;;;;;;5.28;1.70;;;;;;;20.71;80.84;98998.63;5132556;27;20050;-71
2023/09/21 12:02:59;;;;;;;6.07;2.03;;;;;;;20.80;82.26;98995.72;5132258;27;20034;-71
2023/09/21 12:06:06;;;;;;;6.57;1.70;;;;;;;20.84;81.20;98990.88;5132011;27;20042;-73
2023/09/21 12:09:13;;;;;;;4.22;1.58;;;;;;;20.79;81.73;98985.28;5118383;27;20505;-72
2023/09/21 12:12:15;;;;;;;3.83;1.63;;;;;;;20.89;79.25;98969.88;5131138;27;20203;-72
2023/09/21 12:15:19;;;;;;;3.90;1.60;;;;;;;21.21;76.47;98966.00;5131564;27;20070;-72
2023/09/21 12:18:23;;;;;;;3.83;1.80;;;;;;;21.37;75.55;98962.31;5131852;27;20069;-72
2023/09/21 12:21:30;;;;;;;2.78;0.80;;;;;;;21.50;72.56;98956.31;5132353;28;20050;-72
2023/09/21 12:24:35;;;;;;;2.95;0.90;;;;;;;21.49;71.87;98942.19;5131868;27;20111;-71
2023/09/21 12:27:38;;;;;;;4.07;1.20;;;;;;;21.58;71.62;98942.91;5132146;28;20127;-72
2023/09/21 12:30:42;;;;;;;2.55;1.17;;;;;;;21.48;71.22;98935.25;5132142;28;20073;-71
2023/09/21 12:33:45;;;;;;;5.97;1.10;;;;;;;21.45;72.93;98940.94;5132120;28;20107;-71
2023/09/21 12:36:49;;;;;;;5.65;2.03;;;;;;;21.42;72.27;98945.81;5131107;28;20108;-71
2023/09/21 12:39:58;;;;;;;2.33;1.10;;;;;;;21.43;71.88;98937.63;5131873;28;20081;-71
2023/09/21 12:43:02;;;;;;;2.70;1.10;;;;;;;21.32;71.99;98930.97;5132431;28;20088;-71
2023/09/21 12:46:08;;;;;;;5.43;1.00;;;;;;;21.21;71.22;98925.28;5131829;28;20081;-71
2023/09/21 12:49:13;;;;;;;3.65;1.58;;;;;;;21.21;73.10;98909.34;5131915;28;20520;-71
2023/09/21 12:52:16;;;;;;;11.77;1.60;;;;;;;21.20;74.01;98902.41;5131998;28;20049;-70
2023/09/21 12:55:21;;;;;;;5.00;1.40;;;;;;;21.29;74.16;98899.44;5131995;28;20042;-70
2023/09/21 12:58:25;;;;;;;4.15;1.55;;;;;;;21.39;72.54;98893.00;5132071;28;20456;-72
2023/09/21 13:01:29;;;;;;;5.28;1.45;;;;;;;21.39;72.84;98883.19;5131589;28;20050;-71
2023/09/21 13:04:35;;;;;;;3.35;1.65;;;;;;;21.36;73.28;98872.94;5132175;28;20079;-71
2023/09/21 13:07:47;;;;;;;3.47;1.73;;;;;;;21.32;72.85;98875.13;5131729;28;20077;-71
2023/09/21 13:10:54;;;;;;;8.32;1.90;;;;;;;21.30;73.19;98865.69;5119844;28;20062;-73
2023/09/21 13:13:58;;;;;;;4.38;1.70;;;;;;;21.28;71.88;98862.38;5131693;28;20122;-75
2023/09/21 13:17:06;;;;;;;3.85;1.67;;;;;;;21.23;72.38;98864.81;5131751;28;20399;-72
2023/09/21 13:20:16;;;;;;;4.13;1.88;;;;;;;21.19;73.14;98866.22;5131711;28;20058;-74
2023/09/21 13:23:20;;;;;;;3.15;1.48;;;;;;;21.14;74.49;98866.75;5131344;28;20038;-70
2023/09/21 13:26:23;;;;;;;6.10;2.40;;;;;;;21.10;75.20;98855.69;5130626;28;20050;-73
2023/09/21 13:29:27;;;;;;;5.82;1.77;;;;;;;21.08;74.98;98852.38;5131673;28;20076;-70
2023/09/21 13:32:31;;;;;;;5.50;1.95;;;;;;;21.10;75.09;98839.75;5131749;28;20458;-69
2023/09/21 13:35:34;;;;;;;4.32;2.05;;;;;;;21.14;74.80;98833.03;5133078;27;20414;-70
2023/09/21 13:38:37;;;;;;;4.88;2.28;;;;;;;21.17;73.19;98837.16;5134918;27;20517;-71
2023/09/21 13:42:17;;;;;;;7.15;1.83;;;;;;;21.11;76.66;98838.72;5135646;27;20449;-72
2023/09/21 13:45:21;;;;;;;6.22;2.05;;;;;;;21.07;76.46;98829.47;5124007;27;20087;-72
2023/09/21 13:48:24;;;;;;;5.85;2.10;;;;;;;21.08;78.87;98827.66;5127562;27;20111;-73
2023/09/21 13:51:28;;;;;;;3.78;1.73;;;;;;;21.14;79.97;98822.41;5121204;27;20047;-73
2023/09/21 13:54:31;;;;;;;6.60;2.30;;;;;;;21.19;79.22;98821.03;5114640;28;20523;-72
2023/09/21 13:57:34;;;;;;;8.45;2.15;;;;;;;21.18;74.59;98814.03;5114387;28;20066;-72
2023/09/21 14:00:38;;;;;;;6.05;2.20;;;;;;;21.14;73.49;98814.41;5114448;28;20066;-72
2023/09/21 14:03:41;;;;;;;4.32;2.45;;;;;;;21.50;72.03;98813.53;5114089;28;20411;-72
2023/09/21 14:06:48;;;;;;;4.85;1.73;;;;;;;21.87;69.42;98805.44;5114677;28;20131;-73
2023/09/21 14:09:52;;;;;;;3.40;1.80;;;;;;;21.55;69.75;98800.50;5125412;27;20865;-72
2023/09/21 14:12:55;;;;;;;22.83;3.58;;;;;;;21.42;68.44;98800.41;5124230;27;20042;-72
2023/09/21 14:15:58;;;;;;;4.88;2.17;;;;;;;21.50;68.49;98789.59;5113673;28;20051;-72
2023/09/21 14:19:02;;;;;;;6.50;1.70;;;;;;;21.46;70.96;98779.56;5127853;27;20138;-76
2023/09/21 14:22:06;;;;;;;5.72;1.98;;;;;;;21.62;67.63;98776.59;5123138;27;20198;-71
2023/09/21 14:25:09;;;;;;;4.68;1.52;;;;;;;21.51;68.60;98772.66;5120324;27;20084;-72
2023/09/21 14:28:13;;;;;;;3.90;1.92;;;;;;;21.42;68.60;98775.66;5113547;28;20038;-72
2023/09/21 14:31:17;;;;;;;5.68;1.73;;;;;;;21.37;69.17;98776.22;5113650;28;20086;-72
2023/09/21 14:34:20;;;;;;;5.53;1.65;;;;;;;21.32;69.24;98774.09;5113853;28;20403;-73
2023/09/21 14:37:26;;;;;;;4.20;2.00;;;;;;;21.24;70.61;98763.59;5128203;27;20045;-71
2023/09/21 14:40:29;;;;;;;5.30;1.83;;;;;;;21.19;70.66;98766.03;5133067;27;20135;-71